createdAt,value
2019-05-15T00:01:19.287Z,12.60
2019-05-15T00:03:51.523Z,12.59
2019-05-15T00:06:23.120Z,12.57
2019-05-15T00:08:53.300Z,12.53
2019-05-15T00:11:23.477Z,12.50
2019-05-15T00:13:56.081Z,12.46
2019-05-15T00:16:28.843Z,12.45
2019-05-15T00:21:49.010Z,12.41
2019-05-15T00:24:19.289Z,12.37
2019-05-15T00:26:49.805Z,12.35
2019-05-15T00:29:20.048Z,12.31
2019-05-15T00:31:55.896Z,12.30
2019-05-15T00:34:28.567Z,12.28
2019-05-15T00:36:58.926Z,12.26
2019-05-15T00:39:28.910Z,12.20
2019-05-15T00:41:59.109Z,12.16
2019-05-15T00:44:28.946Z,12.14
2019-05-15T00:46:58.897Z,12.11
2019-05-15T00:49:29.045Z,12.08
2019-05-15T00:51:59.222Z,12.04
2019-05-15T00:54:29.271Z,12.02
2019-05-15T00:56:59.245Z,11.97
2019-05-15T00:59:29.931Z,11.96
2019-05-15T01:02:00.250Z,11.97
2019-05-15T01:04:30.198Z,11.95
2019-05-15T01:07:00.851Z,11.92
2019-05-15T01:09:30.785Z,11.87
2019-05-15T01:12:00.587Z,11.87
2019-05-15T01:14:30.534Z,11.85
2019-05-15T01:17:00.544Z,11.81
2019-05-15T01:19:30.544Z,11.78
2019-05-15T01:22:00.817Z,11.75
2019-05-15T01:24:30.796Z,11.73
2019-05-15T01:27:01.111Z,11.72
2019-05-15T01:29:41.111Z,11.71
2019-05-15T01:32:02.730Z,11.69
2019-05-15T01:34:32.689Z,11.69
2019-05-15T01:37:02.651Z,11.66
2019-05-15T01:39:32.606Z,11.64
2019-05-15T01:42:04.047Z,11.61
2019-05-15T01:44:33.935Z,11.57
2019-05-15T01:47:03.955Z,11.54
2019-05-15T01:49:34.253Z,11.50
2019-05-15T01:52:04.263Z,11.47
2019-05-15T01:54:35.562Z,11.44
2019-05-15T01:57:05.561Z,11.41
2019-05-15T01:59:35.840Z,11.39
2019-05-15T02:02:05.838Z,11.38
2019-05-15T02:04:39.319Z,11.34
2019-05-15T02:07:10.051Z,11.30
2019-05-15T02:09:40.019Z,11.27
2019-05-15T02:12:10.328Z,11.23
2019-05-15T02:14:40.312Z,11.22
2019-05-15T02:17:10.285Z,11.21
2019-05-15T02:19:40.256Z,11.19
2019-05-15T02:22:10.391Z,11.16
2019-05-15T02:24:40.999Z,11.14
2019-05-15T02:27:11.027Z,11.10
2019-05-15T02:29:41.036Z,11.06
2019-05-15T02:32:11.012Z,11.03
2019-05-15T02:34:41.232Z,11.02
2019-05-15T02:37:11.377Z,11.00
2019-05-15T02:39:41.172Z,10.96
2019-05-15T02:42:11.220Z,10.97
2019-05-15T02:44:41.951Z,10.94
2019-05-15T02:47:11.950Z,10.92
2019-05-15T02:49:41.944Z,10.92
2019-05-15T02:52:12.103Z,10.88
2019-05-15T02:54:42.005Z,10.88
2019-05-15T02:57:11.893Z,10.89
2019-05-15T02:59:41.983Z,10.89
2019-05-15T03:02:12.001Z,10.88
2019-05-15T03:04:41.889Z,10.85
2019-05-15T03:07:11.894Z,10.82
2019-05-15T03:09:41.904Z,10.79
2019-05-15T03:12:11.883Z,10.74
2019-05-15T03:14:41.908Z,10.68
2019-05-15T03:17:11.918Z,10.62
2019-05-15T03:19:41.868Z,10.57
2019-05-15T03:22:12.314Z,10.50
2019-05-15T03:24:42.289Z,10.44
2019-05-15T03:27:12.322Z,10.40
2019-05-15T03:29:42.340Z,10.34
2019-05-15T03:32:25.144Z,10.30
2019-05-15T03:34:47.473Z,10.28
2019-05-15T03:37:21.476Z,10.23
2019-05-15T03:39:51.598Z,10.20
2019-05-15T03:42:19.242Z,10.18
2019-05-15T03:44:50.162Z,10.13
2019-05-15T03:47:20.357Z,10.08
2019-05-15T03:49:51.427Z,10.06
2019-05-15T03:52:23.173Z,10.03
2019-05-15T03:54:54.668Z,10.00
2019-05-15T03:57:24.688Z,9.99
2019-05-15T03:59:55.630Z,9.98
2019-05-15T04:02:28.629Z,9.97
2019-05-15T04:05:01.646Z,9.95
2019-05-15T04:07:30.249Z,9.92
2019-05-15T04:10:00.212Z,9.92
2019-05-15T04:12:30.233Z,9.92
2019-05-15T04:15:00.260Z,9.93
2019-05-15T04:17:30.331Z,9.93
2019-05-15T04:20:00.311Z,9.93
2019-05-15T04:22:31.405Z,9.93
2019-05-15T04:25:03.731Z,9.95
2019-05-15T04:27:35.014Z,9.97
2019-05-15T04:30:05.522Z,9.99
2019-05-15T04:32:35.436Z,10.01
2019-05-15T04:35:09.321Z,10.00
2019-05-15T04:37:40.499Z,10.03
2019-05-15T04:40:11.134Z,10.05
2019-05-15T04:42:41.068Z,10.08
2019-05-15T04:45:11.073Z,10.11
2019-05-15T04:47:41.498Z,10.12
2019-05-15T04:50:11.971Z,10.14
2019-05-15T04:52:43.252Z,10.15
2019-05-15T04:55:13.586Z,10.16
2019-05-15T04:57:44.629Z,10.18
2019-05-15T05:00:14.801Z,10.22
2019-05-15T05:02:44.901Z,10.26
2019-05-15T05:05:14.919Z,10.26
2019-05-15T05:07:45.535Z,10.29
2019-05-15T05:10:15.545Z,10.33
2019-05-15T05:12:50.565Z,10.37
2019-05-15T05:15:18.982Z,10.41
2019-05-15T05:17:49.199Z,10.43
2019-05-15T05:20:19.240Z,10.46
2019-05-15T05:22:49.150Z,10.47
2019-05-15T05:25:19.173Z,10.48
2019-05-15T05:27:50.475Z,10.51
2019-05-15T05:30:21.109Z,10.51
2019-05-15T05:32:54.361Z,10.53
2019-05-15T05:35:24.322Z,10.55
2019-05-15T05:37:54.553Z,10.54
2019-05-15T05:40:24.505Z,10.58
2019-05-15T05:42:54.575Z,10.62
2019-05-15T05:45:25.340Z,10.66
2019-05-15T05:47:55.332Z,10.70
2019-05-15T05:50:50.817Z,10.71
2019-05-15T05:53:21.618Z,10.75
2019-05-15T05:55:53.348Z,10.78
2019-05-15T05:58:23.322Z,10.81
2019-05-15T06:00:55.018Z,10.81
2019-05-15T06:03:24.945Z,10.85
2019-05-15T06:05:55.042Z,10.88
2019-05-15T06:08:28.096Z,10.92
2019-05-15T06:10:58.514Z,10.98
2019-05-15T06:13:30.139Z,11.03
2019-05-15T06:16:00.165Z,11.09
2019-05-15T06:18:30.207Z,11.14
2019-05-15T06:21:00.464Z,11.19
2019-05-15T06:23:34.828Z,11.25
2019-05-15T06:26:02.774Z,11.27
2019-05-15T06:28:32.704Z,11.35
2019-05-15T06:31:03.322Z,11.41
2019-05-15T06:33:33.323Z,11.49
2019-05-15T06:36:03.381Z,11.56
2019-05-15T06:38:34.572Z,11.63
2019-05-15T06:41:04.908Z,11.70
2019-05-15T06:43:35.685Z,11.76
2019-05-15T06:46:05.954Z,11.82
2019-05-15T06:48:37.987Z,11.88
2019-05-15T06:51:08.923Z,11.94
2019-05-15T06:53:39.128Z,11.99
2019-05-15T06:56:09.143Z,12.03
2019-05-15T06:58:39.377Z,12.07
2019-05-15T07:01:10.468Z,12.10
2019-05-15T07:03:41.682Z,12.13
2019-05-15T07:06:11.675Z,12.17
2019-05-15T07:08:42.772Z,12.20
2019-05-15T07:11:12.694Z,12.23
2019-05-15T07:13:42.772Z,12.25
2019-05-15T07:16:12.765Z,12.27
2019-05-15T07:18:42.756Z,12.30
2019-05-15T07:21:12.658Z,12.33
2019-05-15T07:23:42.663Z,12.36
2019-05-15T07:26:12.734Z,12.39
2019-05-15T07:28:43.106Z,12.42
2019-05-15T07:31:13.058Z,12.45
2019-05-15T07:33:44.002Z,12.45
2019-05-15T07:36:14.481Z,12.48
2019-05-15T07:38:44.712Z,12.50
2019-05-15T07:41:14.817Z,12.51
2019-05-15T07:43:44.811Z,12.53
2019-05-15T07:46:14.788Z,12.55
2019-05-15T07:48:44.741Z,12.58
2019-05-15T07:51:14.731Z,12.61
2019-05-15T07:53:44.701Z,12.64
2019-05-15T07:56:14.583Z,12.65
2019-05-15T07:58:44.570Z,12.68
2019-05-15T08:01:14.534Z,12.69
2019-05-15T08:03:56.459Z,12.73
2019-05-15T08:06:18.007Z,12.75
2019-05-15T08:08:48.771Z,12.77
2019-05-15T08:11:23.961Z,12.80
2019-05-15T08:13:51.511Z,12.83
2019-05-15T08:16:22.027Z,12.85
2019-05-15T08:18:51.972Z,12.89
2019-05-15T08:21:21.974Z,12.90
2019-05-15T08:23:52.213Z,12.90
2019-05-15T08:26:22.216Z,12.93
2019-05-15T08:28:52.276Z,12.96
2019-05-15T08:31:22.573Z,12.97
2019-05-15T08:33:52.496Z,13.01
2019-05-15T08:36:22.440Z,13.01
2019-05-15T08:38:52.376Z,13.04
2019-05-15T08:41:23.330Z,13.07
2019-05-15T08:43:53.273Z,13.07
2019-05-15T08:46:23.276Z,13.10
2019-05-15T08:48:53.293Z,13.12
2019-05-15T08:51:23.273Z,13.14
2019-05-15T08:53:53.166Z,13.20
2019-05-15T08:56:23.103Z,13.21
2019-05-15T08:58:53.251Z,13.22
2019-05-15T09:01:23.258Z,13.25
2019-05-15T09:03:53.187Z,13.26
2019-05-15T09:06:23.389Z,13.30
2019-05-15T09:08:54.326Z,13.34
2019-05-15T09:11:25.084Z,13.38
2019-05-15T09:13:55.154Z,13.41
2019-05-15T09:16:25.003Z,13.43
2019-05-15T09:18:56.288Z,13.45
2019-05-15T09:21:28.369Z,13.44
2019-05-15T09:23:58.861Z,13.46
2019-05-15T09:26:29.031Z,13.47
2019-05-15T09:28:59.050Z,13.51
2019-05-15T09:31:29.048Z,13.53
2019-05-15T09:33:59.251Z,13.53
2019-05-15T09:36:29.537Z,13.54
2019-05-15T09:39:00.060Z,13.55
2019-05-15T09:41:30.280Z,13.61
2019-05-15T09:44:00.223Z,13.67
2019-05-15T09:46:30.158Z,13.75
2019-05-15T09:49:00.252Z,13.79
2019-05-15T09:51:30.278Z,13.85
2019-05-15T09:54:00.273Z,13.91
2019-05-15T09:56:30.188Z,13.98
2019-05-15T09:59:00.183Z,13.99
2019-05-15T10:01:30.188Z,14.01
2019-05-15T10:04:00.194Z,14.03
2019-05-15T10:06:32.125Z,14.09
2019-05-15T10:09:02.113Z,14.18
2019-05-15T10:11:34.668Z,14.26
2019-05-15T10:14:04.858Z,14.31
2019-05-15T10:16:34.840Z,14.36
2019-05-15T10:19:05.749Z,14.44
2019-05-15T10:21:35.730Z,14.52
2019-05-15T10:24:05.823Z,14.60
2019-05-15T10:26:39.128Z,14.69
2019-05-15T10:29:09.113Z,14.73
2019-05-15T10:31:39.278Z,14.81
2019-05-15T10:34:09.390Z,14.93
2019-05-15T10:36:39.561Z,15.05
2019-05-15T10:39:09.622Z,15.23
2019-05-15T10:41:40.895Z,15.47
2019-05-15T10:44:10.961Z,15.77
2019-05-15T10:46:41.298Z,16.03
2019-05-15T10:49:12.213Z,16.24
2019-05-15T10:51:42.481Z,16.47
2019-05-15T10:54:12.862Z,16.68
2019-05-15T10:56:42.913Z,16.87
2019-05-15T10:59:12.976Z,17.06
2019-05-15T11:01:42.976Z,17.23
2019-05-15T11:04:12.958Z,17.36
2019-05-15T11:06:42.964Z,17.52
2019-05-15T11:09:12.970Z,17.71
2019-05-15T11:11:43.030Z,17.85
2019-05-15T11:14:14.252Z,18.01
2019-05-15T11:16:44.258Z,18.15
2019-05-15T11:19:14.581Z,18.32
2019-05-15T11:21:44.518Z,18.43
2019-05-15T11:24:14.722Z,18.53
2019-05-15T11:26:44.756Z,18.67
2019-05-15T11:29:14.742Z,18.84
2019-05-15T11:31:44.742Z,19.01
2019-05-15T11:34:18.389Z,19.18
2019-05-15T11:36:48.523Z,19.34
2019-05-15T11:39:18.530Z,19.44
2019-05-15T11:41:49.228Z,19.57
2019-05-15T11:44:21.805Z,19.72
2019-05-15T11:46:51.772Z,19.83
2019-05-15T11:49:21.784Z,19.90
2019-05-15T11:51:51.813Z,19.94
2019-05-15T11:54:22.015Z,20.07
2019-05-15T11:56:52.129Z,20.22
2019-05-15T11:59:23.342Z,20.40
2019-05-15T12:01:53.321Z,20.46
2019-05-15T12:04:29.812Z,20.54
2019-05-15T12:06:59.651Z,20.53
2019-05-15T12:09:28.332Z,20.66
2019-05-15T12:11:58.330Z,20.75
2019-05-15T12:14:29.940Z,20.91
2019-05-15T12:17:10.085Z,21.12
2019-05-15T12:19:31.717Z,21.24
2019-05-15T12:22:01.705Z,21.28
2019-05-15T12:24:36.785Z,21.43
2019-05-15T12:27:17.510Z,21.57
2019-05-15T12:29:39.748Z,21.68
2019-05-15T12:34:41.569Z,21.85
2019-05-15T12:37:12.022Z,21.91
2019-05-15T12:39:41.928Z,21.94
2019-05-15T12:59:54.842Z,22.38
2019-05-15T13:02:24.882Z,22.43
2019-05-15T13:04:55.206Z,22.55
2019-05-15T13:07:25.454Z,22.65
2019-05-15T13:09:55.471Z,22.73
2019-05-15T13:12:25.581Z,22.77
2019-05-15T13:14:54.772Z,22.78
2019-05-15T13:17:25.675Z,22.86
2019-05-15T13:19:55.686Z,22.97
2019-05-15T13:22:28.133Z,23.01
2019-05-15T13:24:58.871Z,23.06
2019-05-15T13:27:30.233Z,23.11
2019-05-15T13:30:00.210Z,23.20
2019-05-15T13:32:30.637Z,23.33
2019-05-15T13:35:02.276Z,23.45
2019-05-15T13:37:32.173Z,23.57
2019-05-15T13:40:02.138Z,23.67
2019-05-15T13:42:32.083Z,23.69
2019-05-15T13:45:02.447Z,23.79
2019-05-15T13:47:32.655Z,23.79
2019-05-15T13:50:02.632Z,23.77
2019-05-15T13:52:32.655Z,23.92
2019-05-15T13:55:02.623Z,23.96
2019-05-15T13:57:32.564Z,23.92
2019-05-15T14:00:03.225Z,23.92
2019-05-15T14:02:33.232Z,23.96
2019-05-15T14:05:04.816Z,24.02
2019-05-15T14:07:46.000Z,24.10
2019-05-15T14:10:09.439Z,24.11
2019-05-15T14:12:40.629Z,24.10
2019-05-15T14:15:11.129Z,24.09
2019-05-15T14:17:41.135Z,24.07
2019-05-15T14:20:11.140Z,24.01
2019-05-15T14:22:41.012Z,23.99
2019-05-15T14:25:11.484Z,23.98
2019-05-15T14:27:41.656Z,24.00
2019-05-15T14:30:12.462Z,24.01
2019-05-15T14:32:42.455Z,24.03
2019-05-15T14:35:12.586Z,24.04
2019-05-15T14:37:42.917Z,24.06
2019-05-15T14:40:14.549Z,24.09
2019-05-15T14:42:48.342Z,24.12
2019-05-15T14:45:19.101Z,24.13
2019-05-15T14:47:49.391Z,24.06
2019-05-15T14:50:19.679Z,23.92
2019-05-15T14:52:49.670Z,23.92
2019-05-15T14:55:20.029Z,23.84
2019-05-15T14:57:50.140Z,23.77
2019-05-15T15:00:20.937Z,23.73
2019-05-15T15:02:52.148Z,23.74
2019-05-15T15:05:26.170Z,23.67
2019-05-15T15:07:58.616Z,23.66
2019-05-15T15:10:29.139Z,23.64
2019-05-15T15:12:59.273Z,23.57
2019-05-15T15:15:29.260Z,23.54
2019-05-15T15:17:59.376Z,23.50
2019-05-15T15:20:29.267Z,23.46
2019-05-15T15:22:59.295Z,23.43
2019-05-15T15:25:29.622Z,23.33
2019-05-15T15:27:59.872Z,23.23
2019-05-15T15:30:30.025Z,23.23
2019-05-15T15:33:01.245Z,23.13
2019-05-15T15:35:32.327Z,23.08
2019-05-15T15:38:02.669Z,22.97
2019-05-15T15:40:33.018Z,22.97
2019-05-15T15:43:03.272Z,22.95
2019-05-15T15:45:33.169Z,22.89
2019-05-15T15:48:03.209Z,22.73
2019-05-15T15:50:33.264Z,22.57
2019-05-15T15:53:03.575Z,22.48
2019-05-15T15:55:33.551Z,22.37
2019-05-15T15:58:03.581Z,22.24
2019-05-15T16:00:33.738Z,22.28
2019-05-15T16:03:08.397Z,22.25
2019-05-15T16:05:41.479Z,22.26
2019-05-15T16:08:11.953Z,22.24
2019-05-15T16:10:41.893Z,22.30
2019-05-15T16:13:11.863Z,22.35
2019-05-15T16:15:43.582Z,22.35
2019-05-15T16:18:13.596Z,22.48
2019-05-15T16:20:43.478Z,22.52
2019-05-15T16:23:13.749Z,22.54
2019-05-15T16:25:42.998Z,22.51
2019-05-15T16:28:12.795Z,22.48
2019-05-15T16:30:51.012Z,22.47
2019-05-15T16:33:18.257Z,22.45
2019-05-15T16:35:48.636Z,22.46
2019-05-15T16:38:19.194Z,22.51
2019-05-15T16:40:49.460Z,22.54
2019-05-15T16:43:19.449Z,22.55
2019-05-15T16:45:52.012Z,22.52
2019-05-15T16:48:21.087Z,22.52
2019-05-15T16:50:50.981Z,22.50
2019-05-15T16:53:20.956Z,22.48
2019-05-15T16:55:50.905Z,22.46
2019-05-15T16:58:21.245Z,22.42
2019-05-15T17:00:50.377Z,22.43
2019-05-15T17:03:20.313Z,22.40
2019-05-15T17:05:50.669Z,22.35
2019-05-15T17:08:20.687Z,22.33
2019-05-15T17:10:50.703Z,22.29
2019-05-15T17:13:21.047Z,22.29
2019-05-15T17:15:51.250Z,22.19
2019-05-15T17:18:21.188Z,22.19
2019-05-15T17:20:51.194Z,22.17
2019-05-15T17:23:21.493Z,22.14
2019-05-15T17:25:51.702Z,22.13
2019-05-15T17:28:22.024Z,22.05
2019-05-15T17:30:51.030Z,22.04
2019-05-15T17:33:21.271Z,22.00
2019-05-15T17:35:50.382Z,21.96
2019-05-15T17:38:19.302Z,21.84
2019-05-15T17:40:49.319Z,21.64
2019-05-15T17:43:19.366Z,21.37
2019-05-15T17:45:49.383Z,21.19
2019-05-15T17:48:19.825Z,20.94
2019-05-15T17:50:52.691Z,20.74
2019-05-15T17:53:20.570Z,20.49
2019-05-15T17:55:50.406Z,20.28
2019-05-15T17:58:20.384Z,20.28
2019-05-15T18:00:50.395Z,20.15
2019-05-15T18:03:20.384Z,20.04
2019-05-15T18:05:51.000Z,19.94
2019-05-15T18:08:20.954Z,19.88
2019-05-15T18:10:52.110Z,19.80
2019-05-15T18:13:22.122Z,19.71
2019-05-15T18:15:52.003Z,19.62
2019-05-15T18:18:22.324Z,19.56
2019-05-15T18:20:52.253Z,19.50
2019-05-15T18:23:23.678Z,19.45
2019-05-15T18:25:54.167Z,19.36
2019-05-15T18:28:24.501Z,19.28
2019-05-15T18:30:54.438Z,19.22
2019-05-15T18:33:24.772Z,19.16
2019-05-15T18:35:58.040Z,19.11
2019-05-15T18:38:28.131Z,19.04
2019-05-15T18:40:59.172Z,18.97
2019-05-15T18:43:29.517Z,18.93
2019-05-15T18:45:59.551Z,18.87
2019-05-15T18:48:29.875Z,18.81
2019-05-15T18:50:59.867Z,18.75
2019-05-15T18:53:29.720Z,18.69
2019-05-15T18:55:59.974Z,18.65
2019-05-15T18:58:31.327Z,18.58
2019-05-15T19:01:01.251Z,18.53
2019-05-15T19:03:32.840Z,18.46
2019-05-15T19:06:02.948Z,18.45
2019-05-15T19:08:33.620Z,18.40
2019-05-15T19:11:03.932Z,18.35
2019-05-15T19:13:33.946Z,18.30
2019-05-15T19:16:04.304Z,18.23
2019-05-15T19:18:34.365Z,18.19
2019-05-15T19:21:05.331Z,18.12
2019-05-15T19:23:35.368Z,18.07
2019-05-15T19:26:05.661Z,18.02
2019-05-15T19:28:36.065Z,17.97
2019-05-15T19:31:08.807Z,17.91
2019-05-15T19:33:57.703Z,17.85
2019-05-15T19:36:28.917Z,17.78
2019-05-15T19:38:59.727Z,17.71
2019-05-15T19:41:30.655Z,17.65
2019-05-15T19:44:00.646Z,17.61
2019-05-15T19:46:31.098Z,17.56
2019-05-15T19:49:02.542Z,17.50
2019-05-15T19:51:33.251Z,17.45
2019-05-15T19:54:03.632Z,17.39
2019-05-15T19:56:34.103Z,17.31
2019-05-15T19:59:04.265Z,17.24
2019-05-15T20:01:34.528Z,17.16
2019-05-15T20:04:04.867Z,17.11
2019-05-15T20:06:38.806Z,17.06
2019-05-15T20:09:09.380Z,17.00
2019-05-15T20:11:39.368Z,16.94
2019-05-15T20:14:09.720Z,16.87
2019-05-15T20:16:39.915Z,16.82
2019-05-15T20:19:10.410Z,16.77
2019-05-15T20:21:42.427Z,16.72
2019-05-15T20:24:12.511Z,16.69
2019-05-15T20:26:42.534Z,16.66
2019-05-15T20:29:13.853Z,16.63
2019-05-15T20:31:44.116Z,16.60
2019-05-15T20:34:14.085Z,16.56
2019-05-15T20:36:44.346Z,16.50
2019-05-15T20:39:15.140Z,16.45
2019-05-15T20:41:45.067Z,16.39
2019-05-15T20:44:15.158Z,16.35
2019-05-15T20:46:48.406Z,16.32
2019-05-15T20:49:17.965Z,16.28
2019-05-15T20:51:48.975Z,16.23
2019-05-15T20:54:19.071Z,16.20
2019-05-15T20:56:49.140Z,16.15
2019-05-15T20:59:19.200Z,16.12
2019-05-15T21:01:50.838Z,16.06
2019-05-15T21:04:24.044Z,16.03
2019-05-15T21:06:54.529Z,16.01
2019-05-15T21:09:30.673Z,15.98
2019-05-15T21:12:00.815Z,15.94
2019-05-15T21:14:31.545Z,15.87
2019-05-15T21:17:01.522Z,15.82
2019-05-15T21:19:31.716Z,15.75
2019-05-15T21:22:01.857Z,15.67
2019-05-15T21:24:31.830Z,15.56
2019-05-15T21:27:02.026Z,15.47
2019-05-15T21:29:38.184Z,15.39
2019-05-15T21:32:12.242Z,15.32
2019-05-15T21:34:44.463Z,15.23
2019-05-15T21:37:33.829Z,15.10
2019-05-15T21:40:08.280Z,15.02
2019-05-15T21:42:41.514Z,14.95
2019-05-15T21:45:14.594Z,14.92
2019-05-15T21:47:43.607Z,14.87
2019-05-15T21:50:14.828Z,14.81
2019-05-15T21:52:45.123Z,14.69
2019-05-15T21:55:15.191Z,14.61
2019-05-15T21:57:45.186Z,14.62
2019-05-15T22:00:33.230Z,14.62
2019-05-15T22:03:05.002Z,14.61
2019-05-15T22:05:35.083Z,14.61
2019-05-15T22:08:05.054Z,14.57
2019-05-15T22:10:35.076Z,14.56
2019-05-15T22:13:05.973Z,14.56
2019-05-15T22:15:35.997Z,14.54
2019-05-15T22:18:10.776Z,14.48
2019-05-15T22:20:38.926Z,14.43
2019-05-15T22:23:08.896Z,14.39
2019-05-15T22:25:38.894Z,14.34
2019-05-15T22:28:09.218Z,14.26
2019-05-15T22:30:39.367Z,14.22
2019-05-15T22:33:09.563Z,14.17
2019-05-15T22:35:39.949Z,14.12
2019-05-15T22:38:10.067Z,14.06
2019-05-15T22:40:41.438Z,14.02
2019-05-15T22:43:11.405Z,13.95
2019-05-15T22:45:41.351Z,13.90
2019-05-15T22:48:12.265Z,13.83
2019-05-15T22:50:47.812Z,13.79
2019-05-15T22:53:17.903Z,13.76
2019-05-15T22:55:48.443Z,13.67
2019-05-15T22:58:18.583Z,13.63
2019-05-15T23:00:49.081Z,13.60
2019-05-15T23:03:19.165Z,13.56
2019-05-15T23:05:49.119Z,13.51
2019-05-15T23:08:19.062Z,13.49
2019-05-15T23:10:49.330Z,13.42
2019-05-15T23:13:19.309Z,13.34
2019-05-15T23:15:49.089Z,13.27
2019-05-15T23:18:18.987Z,13.23
2019-05-15T23:20:49.031Z,13.21
2019-05-15T23:23:18.940Z,13.20
2019-05-15T23:25:49.436Z,13.18
2019-05-15T23:28:19.769Z,13.15
2019-05-15T23:30:49.982Z,13.11
2019-05-15T23:33:20.226Z,13.09
2019-05-15T23:35:50.213Z,13.07
2019-05-15T23:38:20.199Z,13.07
2019-05-15T23:40:50.202Z,13.04
2019-05-15T23:43:20.167Z,12.99
2019-05-15T23:45:50.388Z,12.96
2019-05-15T23:48:20.429Z,12.93
2019-05-15T23:50:52.511Z,12.91
2019-05-15T23:53:22.480Z,12.87
2019-05-15T23:55:52.436Z,12.83
2019-05-15T23:58:22.387Z,12.82
